Time;durP1;ratioP1;P1;durP2;ratioP2;P2;SDS_P1;SDS_P2;PMS_P1;PMS_P2;Temp;Humidity;BMP_temperature;BMP_pressure;BME280_temperature;BME280_humidity;BME280_pressure;Samples;Min_cycle;Max_cycle;Signal;HPM_P1;HPM_P2
2023/05/22 00:02:07;;;;;;;13.18;12.07;;;17.10;99.90;;;;;;5073354;28;20028;-68
2023/05/22 00:04:33;;;;;;;14.32;13.13;;;17.20;99.90;;;;;;5073397;28;20033;-67
2023/05/22 00:06:59;;;;;;;14.63;13.43;;;17.20;99.90;;;;;;5073236;28;20035;-68
2023/05/22 00:09:25;;;;;;;14.35;13.15;;;17.10;99.90;;;;;;5072825;28;20701;-69
2023/05/22 00:11:51;;;;;;;14.02;12.82;;;17.10;99.90;;;;;;5073574;28;20046;-68
2023/05/22 00:14:17;;;;;;;15.73;14.38;;;17.10;99.90;;;;;;5105578;28;20028;-68
2023/05/22 00:16:43;;;;;;;17.08;15.48;;;17.10;99.90;;;;;;5072414;28;20154;-69
2023/05/22 00:19:12;;;;;;;17.48;15.90;;;17.10;99.90;;;;;;5073272;28;20020;-68
2023/05/22 00:21:43;;;;;;;16.95;15.35;;;17.10;99.90;;;;;;5072895;28;20078;-67
2023/05/22 00:24:09;;;;;;;16.92;15.52;;;17.00;99.90;;;;;;5073111;28;20375;-68
2023/05/22 00:26:35;;;;;;;16.73;15.15;;;17.00;99.90;;;;;;5072840;28;20032;-67
2023/05/22 00:29:00;;;;;;;17.50;16.00;;;17.00;99.90;;;;;;5072550;28;20047;-68
2023/05/22 00:31:26;;;;;;;17.10;15.63;;;17.00;99.90;;;;;;5072252;28;20029;-68
2023/05/22 00:33:52;;;;;;;16.65;15.15;;;17.00;99.90;;;;;;5072954;28;20033;-67
2023/05/22 00:36:17;;;;;;;17.73;16.17;;;17.00;99.90;;;;;;5072500;28;20053;-68
2023/05/22 00:38:43;;;;;;;17.60;15.93;;;17.00;99.90;;;;;;5072567;28;20483;-68
2023/05/22 00:41:09;;;;;;;16.17;14.77;;;16.90;99.90;;;;;;5072894;28;20039;-68
2023/05/22 00:43:37;;;;;;;15.93;14.43;;;17.00;99.90;;;;;;5072509;28;20020;-68
2023/05/22 00:46:03;;;;;;;16.70;15.05;;;17.00;99.90;;;;;;5072149;28;20024;-68
2023/05/22 00:48:29;;;;;;;17.58;15.98;;;17.00;99.90;;;;;;5072240;28;20089;-68
2023/05/22 00:50:57;;;;;;;17.70;16.30;;;17.00;99.90;;;;;;5072324;28;20092;-68
2023/05/22 00:53:24;;;;;;;18.02;16.33;;;16.90;99.90;;;;;;5072766;28;20048;-68
2023/05/22 00:55:51;;;;;;;17.48;15.98;;;16.90;99.90;;;;;;5072242;28;20021;-68
2023/05/22 00:58:17;;;;;;;17.70;16.20;;;16.90;99.90;;;;;;5072147;28;20090;-68
2023/05/22 01:00:45;;;;;;;17.90;16.20;;;16.90;99.90;;;;;;5072008;28;20031;-69
2023/05/22 01:03:11;;;;;;;18.15;16.55;;;16.90;99.90;;;;;;5072144;28;20024;-68
2023/05/22 01:05:38;;;;;;;17.88;16.48;;;16.80;99.90;;;;;;5072057;28;20028;-68
2023/05/22 01:08:06;;;;;;;18.48;16.77;;;16.80;99.90;;;;;;5071616;28;20094;-68
2023/05/22 01:10:34;;;;;;;18.48;16.92;;;16.80;99.90;;;;;;5072010;28;20033;-69
2023/05/22 01:13:09;;;;;;;18.95;17.23;;;16.80;99.90;;;;;;5071858;28;20056;-69
2023/05/22 01:15:55;;;;;;;17.30;15.82;;;16.70;99.90;;;;;;5070098;28;20074;-69
2023/05/22 01:18:48;;;;;;;18.15;16.48;;;16.80;99.90;;;;;;5072116;28;20036;-68
2023/05/22 01:21:55;;;;;;;17.98;16.25;;;16.80;99.90;;;;;;5071818;28;20024;-68
2023/05/22 01:24:54;;;;;;;18.20;16.55;;;16.80;99.90;;;;;;5071109;28;20075;-68
2023/05/22 01:27:41;;;;;;;19.02;17.38;;;16.70;99.90;;;;;;5071971;28;20025;-67
2023/05/22 01:30:25;;;;;;;18.50;16.90;;;16.70;99.90;;;;;;5071233;28;20032;-68
2023/05/22 01:32:56;;;;;;;18.58;17.08;;;16.70;99.90;;;;;;5071575;28;20035;-68
2023/05/22 01:35:22;;;;;;;19.58;17.88;;;16.70;99.90;;;;;;5071600;28;20051;-68
2023/05/22 01:37:49;;;;;;;19.45;17.70;;;16.70;99.90;;;;;;5071424;28;20020;-68
2023/05/22 01:40:16;;;;;;;18.98;17.33;;;16.60;99.90;;;;;;5071343;28;20206;-66
2023/05/22 01:42:42;;;;;;;18.88;17.27;;;16.60;99.90;;;;;;5071556;28;20032;-68
2023/05/22 01:45:09;;;;;;;18.17;16.70;;;16.70;99.90;;;;;;5071355;28;20376;-68
2023/05/22 01:47:36;;;;;;;18.10;16.63;;;16.60;99.90;;;;;;5071358;28;20055;-68
2023/05/22 01:50:03;;;;;;;17.95;16.30;;;16.60;99.90;;;;;;5071371;28;20169;-68
2023/05/22 01:52:33;;;;;;;17.27;15.77;;;16.60;99.90;;;;;;5071253;28;20021;-68
2023/05/22 01:55:16;;;;;;;15.88;14.60;;;16.60;99.90;;;;;;5071552;28;20120;-68
2023/05/22 01:57:41;;;;;;;16.13;14.73;;;16.60;99.90;;;;;;5071291;28;20665;-68
2023/05/22 02:00:10;;;;;;;15.02;13.68;;;16.70;99.90;;;;;;5071252;28;20040;-68
2023/05/22 02:02:39;;;;;;;15.02;13.73;;;16.70;99.90;;;;;;5071162;28;20023;-68
2023/05/22 02:05:08;;;;;;;14.25;13.13;;;16.70;99.90;;;;;;5071410;28;20056;-68
2023/05/22 02:07:38;;;;;;;14.15;12.95;;;16.70;99.90;;;;;;5071139;28;20025;-68
2023/05/22 02:10:06;;;;;;;13.43;12.23;;;16.70;99.90;;;;;;5071102;28;20025;-68
2023/05/22 02:12:32;;;;;;;12.23;11.05;;;16.70;99.90;;;;;;5071166;28;20081;-68
2023/05/22 02:14:59;;;;;;;10.68;9.80;;;16.70;99.90;;;;;;5071011;28;20444;-67
2023/05/22 02:17:25;;;;;;;10.38;9.40;;;16.70;99.90;;;;;;5071045;28;20021;-68
2023/05/22 02:19:51;;;;;;;9.32;8.43;;;16.70;99.90;;;;;;5104909;28;20490;-68
2023/05/22 02:22:16;;;;;;;8.93;8.02;;;16.70;99.90;;;;;;5074846;28;20074;-68
2023/05/22 02:24:46;;;;;;;7.70;7.10;;;16.70;99.90;;;;;;5075553;28;20040;-68
2023/05/22 02:27:12;;;;;;;7.57;6.97;;;16.60;99.90;;;;;;5074931;28;20022;-66
2023/05/22 02:29:38;;;;;;;8.02;7.43;;;16.60;99.90;;;;;;5074787;28;20036;-68
2023/05/22 02:32:04;;;;;;;8.52;7.82;;;16.60;99.90;;;;;;5074963;28;20111;-67
2023/05/22 02:34:33;;;;;;;8.32;7.63;;;16.60;99.90;;;;;;5107502;28;20126;-68
2023/05/22 02:37:02;;;;;;;8.32;7.63;;;16.60;99.90;;;;;;5074977;28;20025;-67
2023/05/22 02:39:28;;;;;;;8.50;7.80;;;16.50;99.90;;;;;;5074829;28;20024;-68
2023/05/22 02:41:54;;;;;;;8.55;7.85;;;16.50;99.90;;;;;;5074649;28;20512;-68
2023/05/22 02:44:20;;;;;;;8.27;7.60;;;16.60;99.90;;;;;;5075055;28;20056;-68
2023/05/22 02:46:46;;;;;;;8.23;7.43;;;16.50;99.90;;;;;;5074735;28;20571;-68
2023/05/22 02:49:12;;;;;;;7.85;7.15;;;16.50;99.90;;;;;;5074624;28;20118;-68
2023/05/22 02:51:38;;;;;;;8.00;7.32;;;16.50;99.90;;;;;;5074830;28;20462;-68
2023/05/22 02:54:04;;;;;;;7.30;6.70;;;16.50;99.90;;;;;;5074735;28;20059;-68
2023/05/22 02:56:29;;;;;;;7.30;6.65;;;16.50;99.90;;;;;;5074182;28;20020;-67
2023/05/22 02:58:58;;;;;;;7.15;6.55;;;16.50;99.90;;;;;;5074456;28;20490;-68
2023/05/22 03:01:25;;;;;;;7.25;6.65;;;16.50;99.90;;;;;;5074444;28;20028;-68
2023/05/22 03:03:51;;;;;;;7.03;6.53;;;16.50;99.90;;;;;;5074276;28;20032;-68
2023/05/22 03:06:17;;;;;;;6.70;6.20;;;16.50;99.90;;;;;;5074550;28;20545;-69
2023/05/22 03:08:43;;;;;;;6.78;6.28;;;16.50;99.90;;;;;;5074244;28;20050;-68
2023/05/22 03:11:09;;;;;;;7.10;6.50;;;16.50;99.90;;;;;;5073929;28;20079;-68
2023/05/22 03:13:35;;;;;;;7.20;6.60;;;16.50;99.90;;;;;;5074209;28;20498;-68
2023/05/22 03:16:01;;;;;;;7.35;6.55;;;16.40;99.90;;;;;;5074213;28;20059;-68
2023/05/22 03:18:26;;;;;;;6.60;6.10;;;16.40;99.90;;;;;;5074503;28;20033;-68
2023/05/22 03:20:52;;;;;;;6.85;6.28;;;16.40;99.90;;;;;;5073971;28;20078;-69
2023/05/22 03:23:21;;;;;;;6.82;6.22;;;16.30;99.90;;;;;;5074058;28;20032;-67
2023/05/22 03:25:47;;;;;;;6.55;6.05;;;16.30;99.90;;;;;;5072408;28;20036;-68
2023/05/22 03:28:13;;;;;;;7.00;6.40;;;16.30;99.90;;;;;;5073929;28;20021;-68
2023/05/22 03:30:39;;;;;;;6.95;6.35;;;16.30;99.90;;;;;;5082455;28;20027;-68
2023/05/22 03:33:05;;;;;;;6.50;5.90;;;16.30;99.90;;;;;;5094427;28;20040;-68
2023/05/22 03:35:30;;;;;;;6.60;6.00;;;16.40;99.90;;;;;;5093890;28;20052;-68
2023/05/22 03:37:56;;;;;;;6.50;5.90;;;16.30;99.90;;;;;;5094033;28;20390;-68
2023/05/22 03:40:22;;;;;;;6.10;5.60;;;16.30;99.90;;;;;;5093924;28;20028;-68
2023/05/22 03:42:48;;;;;;;6.22;5.82;;;16.30;99.90;;;;;;5093955;28;20020;-68
2023/05/22 03:45:14;;;;;;;6.50;6.00;;;16.30;99.90;;;;;;5093856;28;20028;-69
2023/05/22 03:47:40;;;;;;;6.78;6.28;;;16.30;99.90;;;;;;5093693;28;20035;-68
2023/05/22 03:50:06;;;;;;;6.57;6.15;;;16.30;99.90;;;;;;5093889;28;20410;-68
2023/05/22 03:52:31;;;;;;;7.28;6.60;;;16.30;99.90;;;;;;5093835;28;20028;-68
2023/05/22 03:54:57;;;;;;;7.07;6.55;;;16.30;99.90;;;;;;5093362;28;20036;-68
2023/05/22 03:57:23;;;;;;;7.75;7.15;;;16.30;99.90;;;;;;5093836;28;20086;-68
2023/05/22 03:59:48;;;;;;;7.55;6.95;;;16.20;99.90;;;;;;5093725;28;20494;-68
2023/05/22 04:02:15;;;;;;;8.75;8.07;;;16.20;99.90;;;;;;5093740;28;20198;-68
2023/05/22 04:04:44;;;;;;;8.20;7.55;;;16.30;99.90;;;;;;5093867;28;20039;-68
2023/05/22 04:07:12;;;;;;;8.40;7.75;;;16.20;99.90;;;;;;5093320;28;20082;-66
2023/05/22 04:09:38;;;;;;;8.52;7.88;;;16.20;99.90;;;;;;5093072;28;20040;-68
2023/05/22 04:12:04;;;;;;;8.55;7.95;;;16.30;99.90;;;;;;5093313;28;20027;-68
2023/05/22 04:14:29;;;;;;;8.93;8.23;;;16.30;99.90;;;;;;5093322;28;20077;-67
2023/05/22 04:16:55;;;;;;;9.93;9.02;;;16.40;99.90;;;;;;5093255;28;20490;-68
2023/05/22 04:19:21;;;;;;;9.73;9.02;;;16.30;99.90;;;;;;5093519;28;20024;-69
2023/05/22 04:21:48;;;;;;;9.57;8.82;;;16.30;99.90;;;;;;5092983;28;20030;-68
2023/05/22 04:24:13;;;;;;;10.07;9.27;;;16.30;99.90;;;;;;5091493;28;20477;-68
2023/05/22 04:26:39;;;;;;;10.73;9.88;;;16.40;99.90;;;;;;5093152;28;20457;-68
2023/05/22 04:29:09;;;;;;;11.50;10.60;;;16.30;99.90;;;;;;5092995;28;20032;-69
2023/05/22 04:31:35;;;;;;;10.82;9.93;;;16.20;99.90;;;;;;5092908;28;20040;-68
2023/05/22 04:34:01;;;;;;;10.70;9.90;;;16.20;99.90;;;;;;5093336;28;20182;-67
2023/05/22 04:36:28;;;;;;;11.63;10.63;;;16.30;99.90;;;;;;5092331;28;20059;-69
2023/05/22 04:38:54;;;;;;;12.15;11.23;;;16.30;99.90;;;;;;5093013;28;20105;-68
2023/05/22 04:41:21;;;;;;;12.13;11.23;;;16.20;99.90;;;;;;5092814;28;20065;-68
2023/05/22 04:43:47;;;;;;;11.85;11.02;;;16.20;99.90;;;;;;5091918;28;20573;-69
2023/05/22 04:46:14;;;;;;;11.85;10.95;;;16.20;99.90;;;;;;5092623;28;20096;-68
2023/05/22 04:48:40;;;;;;;13.07;12.07;;;16.20;99.90;;;;;;5092623;28;20028;-68
2023/05/22 04:51:06;;;;;;;13.70;12.60;;;16.20;99.90;;;;;;5092608;28;20032;-69
2023/05/22 04:53:32;;;;;;;14.18;12.98;;;16.20;99.90;;;;;;5092324;28;20074;-69
2023/05/22 04:55:58;;;;;;;13.93;12.82;;;16.20;99.90;;;;;;5092946;28;20036;-68
2023/05/22 04:58:28;;;;;;;14.35;13.15;;;16.20;99.90;;;;;;5092538;28;20020;-68
2023/05/22 05:00:56;;;;;;;12.25;11.35;;;16.30;99.90;;;;;;5092523;28;20016;-68
2023/05/22 05:03:24;;;;;;;12.85;11.85;;;16.30;99.90;;;;;;5092581;28;20016;-68
2023/05/22 05:05:50;;;;;;;14.05;12.88;;;16.40;99.90;;;;;;5092546;28;20416;-69
2023/05/22 05:08:16;;;;;;;12.73;11.73;;;16.30;99.90;;;;;;5092002;28;20020;-68
2023/05/22 05:10:42;;;;;;;13.98;12.77;;;16.30;99.90;;;;;;5092304;28;20456;-68
2023/05/22 05:13:07;;;;;;;15.25;13.93;;;16.30;99.90;;;;;;5092050;28;20051;-68
2023/05/22 05:15:33;;;;;;;16.33;14.93;;;16.30;99.90;;;;;;5092208;28;20024;-68
2023/05/22 05:17:59;;;;;;;17.00;15.50;;;16.30;99.90;;;;;;5092525;28;20027;-68
2023/05/22 05:20:26;;;;;;;15.32;14.02;;;16.30;99.90;;;;;;5092138;28;20020;-67
2023/05/22 05:22:52;;;;;;;15.32;14.02;;;16.30;99.90;;;;;;5091895;28;20027;-68
2023/05/22 05:25:17;;;;;;;15.93;14.60;;;16.30;99.90;;;;;;5092149;28;20032;-67
2023/05/22 05:27:43;;;;;;;15.65;14.32;;;16.30;99.90;;;;;;5092310;28;20414;-67
2023/05/22 05:30:09;;;;;;;15.13;13.85;;;16.40;99.90;;;;;;5092076;28;20028;-68
2023/05/22 05:32:35;;;;;;;14.82;13.63;;;16.40;99.90;;;;;;5092061;28;20076;-67
2023/05/22 05:35:01;;;;;;;15.18;13.88;;;16.40;99.90;;;;;;5091791;28;20447;-67
2023/05/22 05:37:27;;;;;;;15.40;14.07;;;16.50;99.90;;;;;;5091456;28;20502;-68
2023/05/22 05:39:52;;;;;;;15.40;13.98;;;16.40;99.90;;;;;;5092178;28;20016;-68
2023/05/22 05:42:19;;;;;;;15.00;13.68;;;16.50;99.90;;;;;;5091611;28;20044;-67
2023/05/22 05:44:45;;;;;;;14.52;13.23;;;16.60;99.90;;;;;;5091611;28;20028;-68
2023/05/22 05:47:11;;;;;;;14.05;12.75;;;16.60;99.90;;;;;;5091586;28;20024;-68
2023/05/22 05:49:36;;;;;;;15.05;13.52;;;16.60;99.90;;;;;;5091602;28;20418;-68
2023/05/22 05:52:03;;;;;;;14.68;13.38;;;16.60;99.90;;;;;;5091331;28;20123;-69
2023/05/22 05:54:28;;;;;;;14.52;13.10;;;16.70;99.90;;;;;;5091634;28;20494;-69
2023/05/22 05:56:54;;;;;;;14.68;13.27;;;16.70;99.90;;;;;;5091531;28;20062;-69
2023/05/22 05:59:20;;;;;;;14.52;13.05;;;16.70;99.90;;;;;;5091293;28;20024;-67
2023/05/22 06:01:47;;;;;;;14.55;13.15;;;16.70;99.90;;;;;;5091235;28;20127;-66
2023/05/22 06:04:13;;;;;;;14.35;13.05;;;16.80;99.90;;;;;;5091034;28;20032;-66
2023/05/22 06:06:39;;;;;;;13.65;12.40;;;16.80;99.90;;;;;;5091596;28;20025;-66
2023/05/22 06:09:05;;;;;;;12.85;11.85;;;16.80;99.90;;;;;;5091273;28;20050;-66
2023/05/22 06:11:32;;;;;;;12.38;11.27;;;16.80;99.90;;;;;;5091227;28;20098;-67
2023/05/22 06:14:01;;;;;;;12.18;11.15;;;16.80;99.90;;;;;;5091612;28;20028;-67
2023/05/22 06:16:27;;;;;;;11.95;11.05;;;16.90;99.90;;;;;;5091132;28;20032;-67
2023/05/22 06:18:53;;;;;;;11.18;10.25;;;16.90;99.90;;;;;;5091199;28;20035;-67
2023/05/22 06:21:21;;;;;;;10.80;9.90;;;17.00;99.90;;;;;;5091506;28;20398;-67
2023/05/22 06:23:48;;;;;;;10.95;10.13;;;17.00;99.90;;;;;;5091037;28;20083;-67
2023/05/22 06:26:15;;;;;;;11.75;10.82;;;17.00;99.90;;;;;;5091182;28;20410;-67
2023/05/22 06:28:41;;;;;;;10.57;9.77;;;17.00;99.90;;;;;;5091112;28;20020;-67
2023/05/22 06:31:08;;;;;;;10.20;9.30;;;17.00;99.90;;;;;;5077867;28;20025;-67
2023/05/22 06:33:39;;;;;;;8.95;8.15;;;17.00;99.90;;;;;;5070505;28;20107;-66
2023/05/22 06:36:05;;;;;;;10.27;9.38;;;17.00;99.90;;;;;;5070612;28;20055;-68
2023/05/22 06:38:31;;;;;;;23.23;10.73;;;17.00;99.90;;;;;;5070893;28;20043;-67
2023/05/22 06:40:57;;;;;;;14.20;12.88;;;17.10;99.90;;;;;;5070888;28;20453;-67
2023/05/22 06:43:23;;;;;;;12.70;11.57;;;17.20;99.90;;;;;;5071053;28;20473;-74
2023/05/22 06:45:49;;;;;;;9.68;8.85;;;17.20;99.90;;;;;;5070931;28;20063;-77
2023/05/22 06:48:14;;;;;;;8.52;7.82;;;17.30;99.90;;;;;;5070471;28;20414;-77
2023/05/22 06:50:40;;;;;;;8.07;7.38;;;17.30;99.90;;;;;;5071030;28;20108;-77
2023/05/22 06:53:06;;;;;;;7.55;6.95;;;17.20;99.90;;;;;;5071301;28;20024;-77
2023/05/22 06:55:32;;;;;;;7.65;7.05;;;17.10;99.90;;;;;;5070623;28;20039;-76
2023/05/22 06:57:57;;;;;;;8.25;7.55;;;17.20;99.90;;;;;;5071020;28;20035;-76
2023/05/22 07:00:24;;;;;;;11.10;10.20;;;17.20;99.90;;;;;;5071074;28;20425;-77
2023/05/22 07:02:49;;;;;;;12.55;11.35;;;17.10;99.90;;;;;;5070763;28;20035;-76
2023/05/22 07:05:15;;;;;;;12.10;11.13;;;17.10;99.90;;;;;;5071395;28;20028;-77
2023/05/22 07:07:42;;;;;;;11.48;10.48;;;17.20;99.90;;;;;;5074792;28;20059;-77
2023/05/22 07:10:08;;;;;;;11.30;10.40;;;17.30;99.90;;;;;;5074454;28;20043;-78
2023/05/22 07:12:34;;;;;;;11.13;10.13;;;17.30;99.90;;;;;;5075190;28;20077;-76
2023/05/22 07:15:00;;;;;;;9.80;9.00;;;17.40;99.90;;;;;;5074572;28;20025;-77
2023/05/22 07:17:26;;;;;;;9.27;8.40;;;17.40;99.90;;;;;;5074762;28;20500;-78
2023/05/22 07:19:52;;;;;;;8.73;8.02;;;17.50;99.90;;;;;;5074663;28;20115;-76
2023/05/22 07:22:17;;;;;;;8.50;7.90;;;17.60;99.90;;;;;;5074810;28;20114;-76
2023/05/22 07:24:43;;;;;;;8.57;7.90;;;17.70;99.90;;;;;;5074390;28;20056;-77
2023/05/22 07:27:11;;;;;;;7.78;7.18;;;17.80;99.90;;;;;;5074138;28;20031;-76
2023/05/22 07:29:36;;;;;;;7.78;7.18;;;17.80;99.90;;;;;;5074685;28;20040;-77
2023/05/22 07:32:02;;;;;;;8.27;7.65;;;17.80;99.90;;;;;;5094223;28;20178;-77
2023/05/22 07:34:32;;;;;;;8.20;7.60;;;17.80;99.90;;;;;;5094360;28;20085;-77
2023/05/22 07:36:59;;;;;;;8.32;7.72;;;17.70;99.90;;;;;;5094276;28;20024;-77
2023/05/22 07:39:25;;;;;;;8.95;8.15;;;17.70;99.90;;;;;;5094819;28;20024;-77
2023/05/22 07:41:51;;;;;;;8.32;7.72;;;17.80;99.90;;;;;;5094992;28;20481;-75
2023/05/22 07:44:17;;;;;;;8.82;8.13;;;17.80;99.90;;;;;;5095834;28;20130;-78
2023/05/22 07:46:42;;;;;;;8.90;8.10;;;17.80;99.90;;;;;;5095946;28;20035;-77
2023/05/22 07:49:09;;;;;;;9.27;8.45;;;17.80;99.90;;;;;;5094913;28;20060;-77
2023/05/22 07:51:34;;;;;;;9.43;8.60;;;17.80;99.90;;;;;;5095056;28;20028;-76
2023/05/22 07:54:00;;;;;;;9.68;8.93;;;17.70;99.90;;;;;;5094470;28;20490;-76
2023/05/22 07:56:26;;;;;;;10.43;9.50;;;17.60;99.90;;;;;;5095834;28;20056;-77
2023/05/22 07:58:52;;;;;;;10.23;9.38;;;17.50;99.90;;;;;;5094584;28;20077;-77
2023/05/22 08:01:18;;;;;;;9.30;8.50;;;17.50;99.90;;;;;;5093786;28;20034;-77
2023/05/22 08:03:43;;;;;;;9.60;8.80;;;17.50;99.90;;;;;;5093975;28;20371;-77
2023/05/22 08:06:09;;;;;;;10.30;9.30;;;17.70;99.90;;;;;;5094196;28;20083;-77
2023/05/22 08:08:35;;;;;;;10.48;9.60;;;17.70;99.90;;;;;;5094167;28;20058;-77
2023/05/22 08:11:01;;;;;;;9.50;8.80;;;17.80;99.90;;;;;;5092931;28;20036;-77
2023/05/22 08:13:26;;;;;;;9.32;8.63;;;17.90;99.90;;;;;;5094124;28;20105;-77
2023/05/22 08:15:52;;;;;;;9.90;9.10;;;18.00;99.90;;;;;;5093408;28;20394;-77
2023/05/22 08:18:18;;;;;;;9.15;8.35;;;18.00;99.90;;;;;;5092950;28;20016;-77
2023/05/22 08:20:45;;;;;;;9.30;8.60;;;18.00;99.90;;;;;;5093634;28;20074;-77
2023/05/22 08:23:11;;;;;;;9.02;8.32;;;18.10;99.90;;;;;;5093872;28;20024;-76
2023/05/22 08:25:37;;;;;;;9.38;8.65;;;18.20;99.90;;;;;;5094540;28;20032;-77
2023/05/22 08:28:02;;;;;;;9.50;8.60;;;18.20;99.90;;;;;;5094051;28;20024;-77
2023/05/22 08:30:28;;;;;;;9.18;8.48;;;18.30;99.90;;;;;;5085154;28;20044;-77
2023/05/22 08:32:54;;;;;;;9.52;8.73;;;18.40;99.90;;;;;;5073953;28;20028;-76
2023/05/22 08:35:20;;;;;;;10.07;9.30;;;18.30;99.90;;;;;;5073394;28;20048;-76
2023/05/22 08:37:45;;;;;;;9.75;8.95;;;18.30;99.90;;;;;;5074253;28;20070;-76
2023/05/22 08:40:12;;;;;;;10.65;9.77;;;18.40;99.90;;;;;;5073270;28;20034;-77
2023/05/22 08:42:37;;;;;;;9.93;9.23;;;18.30;99.90;;;;;;5073553;28;20035;-77
2023/05/22 08:45:05;;;;;;;10.18;9.38;;;18.40;99.90;;;;;;5072292;28;20402;-79
2023/05/22 08:47:36;;;;;;;24.02;10.35;;;18.40;99.90;;;;;;5072436;28;20052;-72
2023/05/22 08:50:03;;;;;;;9.68;8.80;;;18.20;99.90;;;;;;5072429;28;20086;-72
2023/05/22 08:52:39;;;;;;;36.33;10.75;;;18.20;99.90;;;;;;5072464;28;20490;-74
2023/05/22 08:55:06;;;;;;;25.02;11.18;;;18.40;99.90;;;;;;5072245;28;20506;-66
2023/05/22 08:57:32;;;;;;;15.77;8.98;;;18.70;99.90;;;;;;5072192;28;20021;-69
2023/05/22 08:59:58;;;;;;;19.42;9.38;;;18.70;99.90;;;;;;5072284;28;20033;-66
2023/05/22 09:02:24;;;;;;;20.45;8.85;;;18.70;99.90;;;;;;5072235;28;20613;-68
2023/05/22 09:04:51;;;;;;;13.98;8.30;;;18.80;99.90;;;;;;5072260;28;20495;-68
2023/05/22 09:07:17;;;;;;;9.38;8.45;;;18.90;99.90;;;;;;5072395;28;20115;-70
2023/05/22 09:09:43;;;;;;;9.02;8.30;;;19.00;99.90;;;;;;5072101;28;20044;-68
2023/05/22 09:12:09;;;;;;;8.27;7.47;;;19.10;99.90;;;;;;5071979;28;20383;-68
2023/05/22 09:14:54;;;;;;;20.23;8.77;;;19.20;99.90;;;;;;5071848;28;20115;-69
2023/05/22 09:17:20;;;;;;;21.50;7.82;;;19.30;99.90;;;;;;5072091;28;20054;-69
2023/05/22 09:19:46;;;;;;;9.48;7.50;;;19.30;99.90;;;;;;5072155;28;20058;-69
2023/05/22 09:22:13;;;;;;;9.93;7.50;;;19.30;99.90;;;;;;5070597;28;20024;-70
2023/05/22 09:24:44;;;;;;;10.32;7.50;;;19.20;99.90;;;;;;5071656;28;20108;-69
2023/05/22 09:27:10;;;;;;;8.20;7.50;;;19.30;99.90;;;;;;5071396;28;20028;-68
2023/05/22 09:29:51;;;;;;;7.38;6.82;;;19.40;99.90;;;;;;5070237;28;20520;-68
2023/05/22 09:32:17;;;;;;;7.85;6.80;;;19.40;99.90;;;;;;5091978;28;20619;-70
2023/05/22 09:34:44;;;;;;;9.38;7.80;;;19.40;99.90;;;;;;5091859;28;20130;-70
2023/05/22 09:37:11;;;;;;;11.13;7.20;;;19.40;99.90;;;;;;5091797;28;20490;-68
2023/05/22 09:39:42;;;;;;;10.93;7.72;;;19.50;99.90;;;;;;5091669;28;20052;-73
2023/05/22 09:42:10;;;;;;;79.88;12.85;;;19.50;99.90;;;;;;5090739;28;20025;-70
2023/05/22 09:44:36;;;;;;;17.58;7.60;;;19.40;99.90;;;;;;5091457;28;20032;-70
2023/05/22 09:47:03;;;;;;;24.65;7.95;;;19.50;99.90;;;;;;5091650;28;20077;-69
2023/05/22 09:49:29;;;;;;;31.17;9.13;;;19.60;99.90;;;;;;5091942;28;20035;-69
2023/05/22 09:51:56;;;;;;;11.30;6.47;;;19.70;99.90;;;;;;5091729;28;20008;-68
2023/05/22 09:54:25;;;;;;;27.63;7.45;;;19.80;99.90;;;;;;5091401;28;20027;-68
2023/05/22 09:56:55;;;;;;;630.92;51.72;;;19.80;99.90;;;;;;5091283;28;20035;-68
2023/05/22 09:59:25;;;;;;;206.93;19.90;;;19.90;99.90;;;;;;5091620;28;20124;-69
2023/05/22 10:01:52;;;;;;;9.27;5.80;;;20.00;99.90;;;;;;5091471;28;20028;-72
2023/05/22 10:04:20;;;;;;;8.88;5.43;;;20.00;99.90;;;;;;5091590;28;20055;-70
2023/05/22 10:06:50;;;;;;;5.40;5.00;;;20.10;99.90;;;;;;5091644;28;20441;-70
2023/05/22 10:09:17;;;;;;;6.53;5.90;;;20.20;99.90;;;;;;5091326;28;20032;-70
2023/05/22 10:11:43;;;;;;;6.57;6.07;;;20.10;99.90;;;;;;5090995;28;20034;-70
2023/05/22 10:14:10;;;;;;;6.07;5.45;;;20.10;99.90;;;;;;5091296;28;20024;-71
2023/05/22 10:16:40;;;;;;;5.72;5.22;;;20.10;99.90;;;;;;5091599;28;20032;-70
2023/05/22 10:19:07;;;;;;;6.70;6.10;;;20.10;99.90;;;;;;5091240;28;20028;-70
2023/05/22 10:21:35;;;;;;;7.20;6.60;;;20.10;99.90;;;;;;5091278;28;20036;-69
2023/05/22 10:24:01;;;;;;;6.05;5.65;;;20.20;99.90;;;;;;5090732;28;20028;-69
2023/05/22 10:26:28;;;;;;;6.70;6.10;;;20.20;99.90;;;;;;5091209;28;20047;-71
2023/05/22 10:29:16;;;;;;;6.55;6.05;;;20.30;99.90;;;;;;5091178;28;20067;-70
2023/05/22 10:31:51;;;;;;;6.60;6.10;;;20.30;99.90;;;;;;5091141;28;20031;-71
2023/05/22 10:34:46;;;;;;;6.43;5.95;;;20.30;99.90;;;;;;5090843;28;20391;-70
2023/05/22 10:37:36;;;;;;;7.13;6.53;;;20.30;99.90;;;;;;5089640;28;20045;-70
2023/05/22 10:40:08;;;;;;;6.95;6.45;;;20.40;99.90;;;;;;5090258;28;20650;-70
2023/05/22 10:42:35;;;;;;;7.35;6.65;;;20.50;99.90;;;;;;5093477;28;20024;-70
2023/05/22 10:45:03;;;;;;;6.68;6.15;;;20.50;99.90;;;;;;5094997;28;20032;-69
2023/05/22 10:47:32;;;;;;;6.35;5.85;;;20.60;99.90;;;;;;5094917;28;20042;-70
2023/05/22 10:50:09;;;;;;;6.97;6.47;;;20.70;99.90;;;;;;5094584;28;20060;-71
2023/05/22 10:52:36;;;;;;;6.68;6.18;;;20.60;99.90;;;;;;5094628;28;20032;-71
2023/05/22 10:55:07;;;;;;;7.00;6.40;;;20.70;99.90;;;;;;5093338;28;20020;-71
2023/05/22 10:57:33;;;;;;;7.13;6.43;;;20.70;99.90;;;;;;5094757;28;20123;-69
2023/05/22 11:00:11;;;;;;;7.35;6.78;;;20.70;99.90;;;;;;5094931;28;20066;-71
2023/05/22 11:02:42;;;;;;;7.53;6.93;;;20.80;99.90;;;;;;5094852;28;20024;-70
2023/05/22 11:05:20;;;;;;;7.38;6.80;;;20.80;99.90;;;;;;5094644;28;20035;-71
2023/05/22 11:07:46;;;;;;;6.75;6.25;;;21.00;99.90;;;;;;5094578;28;20039;-71
2023/05/22 11:10:12;;;;;;;6.53;6.00;;;21.20;99.90;;;;;;5094330;28;20036;-71
2023/05/22 11:12:37;;;;;;;6.60;6.00;;;21.40;99.90;;;;;;5095057;28;20020;-71
2023/05/22 11:15:08;;;;;;;6.95;6.35;;;21.30;99.90;;;;;;5094430;28;20493;-71
2023/05/22 11:17:43;;;;;;;6.43;5.93;;;21.20;99.90;;;;;;5094635;28;20030;-71
2023/05/22 11:20:19;;;;;;;7.20;6.50;;;21.10;99.90;;;;;;5094530;28;20020;-71
2023/05/22 11:22:59;;;;;;;8.05;7.25;;;21.10;99.90;;;;;;5094349;28;20417;-71
2023/05/22 11:25:26;;;;;;;6.32;5.82;;;21.20;99.90;;;;;;5094325;28;20111;-70
2023/05/22 11:27:54;;;;;;;6.20;5.70;;;21.30;99.90;;;;;;5094331;28;20032;-71
2023/05/22 11:30:23;;;;;;;6.22;5.72;;;21.50;99.90;;;;;;5087755;28;20032;-70
2023/05/22 11:32:49;;;;;;;6.70;6.20;;;21.70;99.90;;;;;;5074119;28;20032;-71
2023/05/22 11:35:16;;;;;;;7.00;6.30;;;21.70;99.90;;;;;;5073809;28;20403;-71
2023/05/22 11:37:42;;;;;;;6.45;5.95;;;21.70;99.90;;;;;;5073565;28;20037;-70
2023/05/22 11:40:09;;;;;;;9.23;8.43;;;21.80;99.90;;;;;;5074246;28;20531;-71
2023/05/22 11:42:36;;;;;;;12.50;11.32;;;21.90;99.90;;;;;;5073970;28;20028;-70
2023/05/22 11:45:03;;;;;;;10.10;9.20;;;21.80;99.90;;;;;;5073851;28;20574;-70
2023/05/22 11:47:30;;;;;;;9.73;8.88;;;21.60;99.90;;;;;;5074028;28;20100;-70
2023/05/22 11:49:56;;;;;;;9.23;8.45;;;21.60;99.90;;;;;;5073522;28;20040;-70
2023/05/22 11:52:22;;;;;;;10.52;9.63;;;21.60;99.90;;;;;;5073152;28;20100;-70
2023/05/22 11:54:50;;;;;;;13.63;12.52;;;21.70;99.90;;;;;;5073609;28;20028;-70
2023/05/22 11:57:16;;;;;;;17.48;15.98;;;21.70;99.90;;;;;;5073700;28;20073;-70
2023/05/22 11:59:45;;;;;;;12.77;11.68;;;21.70;99.90;;;;;;5073607;28;20135;-70
2023/05/22 12:02:12;;;;;;;14.10;13.00;;;21.90;99.90;;;;;;5073520;28;20020;-70
2023/05/22 12:04:38;;;;;;;11.43;10.40;;;22.00;99.90;;;;;;5073718;28;20438;-70
2023/05/22 12:07:04;;;;;;;13.35;12.02;;;22.10;99.90;;;;;;5073012;28;20029;-69
2023/05/22 12:09:30;;;;;;;13.65;12.55;;;22.20;99.90;;;;;;5073237;28;20410;-70
2023/05/22 12:11:59;;;;;;;12.75;11.55;;;22.30;99.90;;;;;;5073470;28;20103;-70
2023/05/22 12:14:29;;;;;;;12.38;11.38;;;22.20;99.90;;;;;;5073267;28;20039;-70
2023/05/22 12:16:58;;;;;;;12.80;11.75;;;22.40;99.90;;;;;;5073216;28;20078;-70
2023/05/22 12:19:25;;;;;;;13.15;11.95;;;22.40;99.90;;;;;;5073242;28;20441;-70
2023/05/22 12:21:51;;;;;;;12.70;11.60;;;22.70;99.90;;;;;;5072807;28;20021;-68
2023/05/22 12:24:22;;;;;;;12.80;11.55;;;22.80;99.90;;;;;;5073400;28;20486;-70
2023/05/22 12:26:54;;;;;;;12.88;11.68;;;23.00;99.90;;;;;;5073027;28;20028;-70
2023/05/22 12:29:24;;;;;;;12.18;11.18;;;22.80;99.90;;;;;;5072827;28;20044;-70
2023/05/22 12:31:50;;;;;;;12.57;11.43;;;22.70;99.90;;;;;;5072750;28;20025;-70
2023/05/22 12:34:17;;;;;;;11.48;10.48;;;22.60;99.90;;;;;;5072772;28;20032;-70
2023/05/22 12:36:44;;;;;;;11.82;10.73;;;22.50;99.90;;;;;;5072610;28;20145;-69
2023/05/22 12:39:15;;;;;;;12.05;11.05;;;22.70;99.90;;;;;;5072677;28;20033;-70
2023/05/22 12:41:40;;;;;;;12.90;11.63;;;22.80;99.90;;;;;;5074725;28;20403;-68